This is the latest recevied weather packets stored in our database for station/object R1ZCU-14. If no packets are shown the sender has not sent any weather packets the latest 10 day(s).
| Time | Temp. | Humidity | Pressure | Rain* | Wind** | Luminosity | Snow |
|---|---|---|---|---|---|---|---|
| 1777794618 | 14.44° C | 20% | 991.3 hPa | - | - | - | - |
| 1777794018 | 15.56° C | 19% | 991.4 hPa | - | - | - | - |
| 1777793417 | 14.44° C | 20% | 991.4 hPa | - | - | - | - |
| 1777792817 | 13.33° C | 21% | 991.3 hPa | - | - | - | - |
| 1777792216 | 11.11° C | 24% | 991.3 hPa | - | - | - | - |
| 1777791616 | 12.22° C | 23% | 991.7 hPa | - | - | - | - |
| 1777791015 | 13.33° C | 23% | 991.3 hPa | - | - | - | - |
| 1777790415 | 12.22° C | 23% | 991.3 hPa | - | - | - | - |
| 1777789814 | 12.22° C | 25% | 991.3 hPa | - | - | - | - |
| 1777789214 | 11.67° C | 25% | 991.3 hPa | - | - | - | - |
| 1777788613 | 12.22° C | 23% | 991.2 hPa | - | - | - | - |
| 1777788013 | 11.67° C | 24% | 991 hPa | - | - | - | - |
| 1777787412 | 12.22° C | 23% | 991 hPa | - | - | - | - |
| 1777786812 | 12.78° C | 23% | 990.8 hPa | - | - | - | - |
| 1777786211 | 11.67° C | 25% | 990.9 hPa | - | - | - | - |
| 1777785611 | 11.67° C | 24% | 990.7 hPa | - | - | - | - |
| 1777785010 | 11.11° C | 26% | 990.7 hPa | - | - | - | - |
| 1777784410 | 10.56° C | 27% | 990.7 hPa | - | - | - | - |
| 1777783809 | 9.44° C | 30% | 990.5 hPa | - | - | - | - |
| 1777783209 | 9.44° C | 31% | 990.7 hPa | - | - | - | - |
| 1777782608 | 8.89° C | 31% | 990.7 hPa | - | - | - | - |
| 1777782008 | 7.78° C | 35% | 990.8 hPa | - | - | - | - |
| 1777781407 | 7.78° C | 36% | 990.8 hPa | - | - | - | - |
| 1777780807 | 7.22° C | 37% | 990.8 hPa | - | - | - | - |
| 1777780206 | 7.22° C | 39% | 990.7 hPa | - | - | - | - |
* Rain since midnight (hover to see other rain measurements)
** Current wind speed in m/s (hover to see current wind gust speed)